Time;durP1;ratioP1;P1;durP2;ratioP2;P2;SDS_P1;SDS_P2;PMS_P1;PMS_P2;Temp;Humidity;BMP_temperature;BMP_pressure;BME280_temperature;BME280_humidity;BME280_pressure;Samples;Min_cycle;Max_cycle;Signal;HPM_P1;HPM_P2
2022/05/11 00:01:29;;;;;;;7.57;2.58;;;;;;;17.07;57.85;101133.13;4982739;28;20069;-73
2022/05/11 00:03:59;;;;;;;9.50;2.80;;;;;;;17.06;57.58;101128.78;4987377;28;20034;-73
2022/05/11 00:06:26;;;;;;;6.95;2.78;;;;;;;17.07;57.21;101130.41;4977123;28;20049;-73
2022/05/11 00:08:53;;;;;;;9.02;2.88;;;;;;;17.04;57.04;101133.66;4994484;28;20030;-73
2022/05/11 00:11:18;;;;;;;7.78;3.05;;;;;;;17.01;57.24;101128.72;4994520;28;20030;-73
2022/05/11 00:13:44;;;;;;;5.55;2.75;;;;;;;17.05;57.08;101127.13;4994174;28;20358;-73
2022/05/11 00:16:10;;;;;;;4.50;2.55;;;;;;;17.02;57.54;101126.81;4993967;28;20118;-73
2022/05/11 00:18:35;;;;;;;7.25;3.00;;;;;;;17.03;57.15;101118.38;4994215;28;20033;-73
2022/05/11 00:21:00;;;;;;;6.38;3.17;;;;;;;17.02;56.85;101115.88;4994164;28;20041;-73
2022/05/11 00:23:26;;;;;;;6.00;2.60;;;;;;;16.99;57.67;101111.75;4993865;28;20510;-73
2022/05/11 00:25:51;;;;;;;5.18;2.65;;;;;;;16.98;56.91;101110.94;4993849;28;20038;-73
2022/05/11 00:28:16;;;;;;;6.85;2.53;;;;;;;16.97;57.32;101103.00;4994080;28;20050;-73
2022/05/11 00:30:42;;;;;;;4.75;2.42;;;;;;;16.99;56.91;101107.09;4994138;28;20038;-73
2022/05/11 00:33:07;;;;;;;4.63;2.65;;;;;;;16.93;57.95;101093.69;4992814;28;20026;-73
2022/05/11 00:35:34;;;;;;;6.70;2.50;;;;;;;16.95;57.13;101099.69;4993821;28;20078;-73
2022/05/11 00:38:00;;;;;;;8.35;2.53;;;;;;;16.95;56.95;101096.97;4993489;28;20030;-73
2022/05/11 00:40:26;;;;;;;6.50;2.40;;;;;;;16.93;57.47;101093.69;4994043;28;20073;-73
2022/05/11 00:42:52;;;;;;;7.32;2.60;;;;;;;16.95;56.67;101097.81;4993713;28;20038;-73
2022/05/11 00:45:18;;;;;;;6.30;2.35;;;;;;;16.95;56.43;101089.59;4993664;28;20030;-74
2022/05/11 00:47:52;;;;;;;5.65;2.13;;;;;;;16.96;57.02;101088.50;4993883;28;20164;-72
2022/05/11 00:50:28;;;;;;;8.35;2.75;;;;;;;16.92;56.59;101075.63;4993482;28;20049;-73
2022/05/11 00:53:09;;;;;;;9.05;2.97;;;;;;;16.94;57.50;101078.91;4993186;28;20034;-73
2022/05/11 00:55:37;;;;;;;;;;;;;;;17.04;56.54;101078.97;4994194;28;20034;-73
2022/05/11 00:58:07;;;;;;;8.15;2.47;;;;;;;16.93;56.70;101078.09;4975660;28;19913;-73
2022/05/11 01:00:32;;;;;;;6.45;2.70;;;;;;;16.92;57.72;101083.81;4991294;28;20103;-73
2022/05/11 01:03:06;;;;;;;3.78;2.35;;;;;;;16.91;57.12;101072.06;4982242;28;20469;-73
2022/05/11 01:05:32;;;;;;;9.10;2.95;;;;;;;16.88;57.23;101071.75;4993562;28;20026;-72
2022/05/11 01:07:58;;;;;;;8.15;2.20;;;;;;;16.88;57.19;101069.03;4993249;28;20022;-73
2022/05/11 01:10:26;;;;;;;4.53;2.20;;;;;;;16.82;58.77;101065.41;4995658;28;20042;-73
2022/05/11 01:12:56;;;;;;;5.88;2.70;;;;;;;16.84;57.95;101068.69;5008258;28;20018;-73
2022/05/11 01:15:24;;;;;;;12.15;2.97;;;;;;;16.90;57.28;101066.88;5008123;28;20089;-73
2022/05/11 01:17:49;;;;;;;4.55;2.22;;;;;;;16.88;57.35;101058.94;4994507;28;20382;-73
2022/05/11 01:20:20;;;;;;;5.57;2.28;;;;;;;16.91;57.37;101054.81;4993136;28;20030;-73
2022/05/11 01:22:56;;;;;;;5.82;2.20;;;;;;;16.84;58.18;101055.84;4975779;28;20027;-73
2022/05/11 01:25:23;;;;;;;6.57;2.42;;;;;;;16.87;57.78;101051.00;4993342;28;20032;-73
2022/05/11 01:27:48;;;;;;;4.22;2.00;;;;;;;16.84;58.64;101046.84;4993541;28;20098;-73
2022/05/11 01:30:20;;;;;;;3.55;2.20;;;;;;;16.86;60.28;101052.84;4992713;28;20588;-73
2022/05/11 01:32:48;;;;;;;4.55;2.10;;;;;;;16.86;58.59;101049.31;4975856;28;20092;-73
2022/05/11 01:35:19;;;;;;;4.75;2.15;;;;;;;16.82;60.03;101052.56;4992385;28;20054;-73
2022/05/11 01:38:03;;;;;;;3.58;2.25;;;;;;;16.87;58.50;101053.72;4993094;28;20370;-73
2022/05/11 01:40:28;;;;;;;2.20;2.00;;;;;;;16.81;58.36;101048.16;4992719;28;20039;-73
2022/05/11 01:42:53;;;;;;;7.00;2.33;;;;;;;16.77;58.70;101047.06;4992291;28;20038;-73
2022/05/11 01:45:19;;;;;;;3.60;1.85;;;;;;;16.77;58.69;101047.06;4993266;28;20397;-73
2022/05/11 01:47:44;;;;;;;4.68;2.00;;;;;;;16.75;58.71;101049.22;4975558;28;20030;-73
2022/05/11 01:50:09;;;;;;;4.07;2.20;;;;;;;16.74;58.36;101042.13;4992717;28;20030;-73
2022/05/11 01:52:34;;;;;;;4.95;2.05;;;;;;;16.73;58.50;101045.94;4991291;28;20394;-73
2022/05/11 01:55:00;;;;;;;8.02;2.30;;;;;;;16.72;59.25;101043.47;4992941;28;20045;-73
2022/05/11 01:57:25;;;;;;;8.75;2.72;;;;;;;16.67;59.17;101046.97;4993120;28;20070;-73
2022/05/11 01:59:50;;;;;;;4.40;2.10;;;;;;;16.69;58.76;101042.06;4992424;28;20033;-73
2022/05/11 02:02:16;;;;;;;6.07;2.30;;;;;;;16.67;58.84;101041.53;4975926;28;20055;-73
2022/05/11 02:10:09;;;;;;;5.25;2.15;;;;;;;16.71;58.25;101037.16;4996462;28;20100;-73
2022/05/11 02:12:36;;;;;;;5.35;2.38;;;;;;;16.64;59.00;101031.13;4996503;28;20027;-73
2022/05/11 02:15:02;;;;;;;5.07;2.10;;;;;;;16.64;58.44;101031.13;4996559;28;20035;-73
2022/05/11 02:17:27;;;;;;;5.78;2.22;;;;;;;16.65;58.82;101035.47;4997077;28;20366;-73
2022/05/11 02:19:52;;;;;;;6.60;1.90;;;;;;;16.68;58.66;101025.94;4996342;28;20030;-73
2022/05/11 02:22:17;;;;;;;3.92;2.00;;;;;;;16.65;59.24;101027.28;4996168;28;20515;-74
2022/05/11 02:24:43;;;;;;;4.60;2.30;;;;;;;16.64;59.27;101028.38;4995766;28;20034;-73
2022/05/11 02:27:08;;;;;;;5.20;2.03;;;;;;;16.62;59.08;101027.81;4986436;28;20476;-72
2022/05/11 02:29:33;;;;;;;5.13;2.40;;;;;;;16.61;59.00;101031.63;4959857;28;20090;-72
2022/05/11 02:31:58;;;;;;;5.25;2.33;;;;;;;16.59;59.02;101025.59;4993675;28;20119;-73
2022/05/11 02:37:08;;;;;;;8.32;2.10;;;;;;;16.61;59.30;101034.38;4996629;28;20046;-72
2022/05/11 02:39:33;;;;;;;3.08;2.10;;;;;;;16.59;59.04;101020.13;4979377;28;20469;-72
2022/05/11 02:42:00;;;;;;;6.22;2.38;;;;;;;16.57;59.18;101028.59;4996574;28;20030;-73
2022/05/11 02:44:25;;;;;;;5.40;2.00;;;;;;;16.53;59.27;101030.22;4997018;28;20047;-73
2022/05/11 02:46:50;;;;;;;4.05;2.22;;;;;;;16.54;59.41;101026.38;5002563;28;20126;-74
2022/05/11 02:49:16;;;;;;;3.13;2.08;;;;;;;16.50;59.38;101027.16;5019841;28;20078;-73
2022/05/11 02:51:41;;;;;;;4.55;2.00;;;;;;;16.53;59.23;101023.91;5006220;28;20041;-73
2022/05/11 02:54:06;;;;;;;4.93;2.08;;;;;;;16.50;59.68;101018.97;4995645;28;20062;-73
2022/05/11 02:56:32;;;;;;;2.50;1.83;;;;;;;16.53;59.47;101023.91;4996150;28;20055;-73
2022/05/11 02:58:57;;;;;;;4.68;2.10;;;;;;;16.52;58.82;101028.56;4978244;28;20462;-73
2022/05/11 03:01:22;;;;;;;5.03;2.08;;;;;;;16.51;59.15;101023.34;4993224;28;20041;-73
2022/05/11 03:03:47;;;;;;;3.75;1.98;;;;;;;16.51;59.44;101021.44;4986765;28;20403;-73
2022/05/11 03:06:13;;;;;;;6.55;2.28;;;;;;;16.49;59.73;101020.88;4995591;28;20065;-73
2022/05/11 03:08:38;;;;;;;4.45;2.20;;;;;;;16.49;59.68;101015.41;4995623;28;20109;-73
2022/05/11 03:11:05;;;;;;;5.10;1.90;;;;;;;16.50;59.37;101008.03;4995752;28;20109;-73
2022/05/11 03:13:30;;;;;;;4.72;2.15;;;;;;;16.47;59.53;101012.94;4994190;28;20481;-73
2022/05/11 03:15:56;;;;;;;4.53;1.98;;;;;;;16.46;59.67;101003.09;4994511;28;20041;-73
2022/05/11 03:18:21;;;;;;;6.68;2.17;;;;;;;16.45;60.18;101000.63;4977915;28;20492;-73
2022/05/11 03:20:46;;;;;;;3.35;1.92;;;;;;;16.43;59.71;100998.16;4995559;28;20030;-73
2022/05/11 03:23:11;;;;;;;5.30;2.20;;;;;;;16.44;59.38;100994.34;4995044;28;20672;-73
2022/05/11 03:25:37;;;;;;;6.20;2.00;;;;;;;16.43;59.91;100995.44;4995462;28;20454;-73
2022/05/11 03:28:02;;;;;;;8.15;2.10;;;;;;;16.39;61.30;100990.75;4994932;28;20050;-73
2022/05/11 03:30:27;;;;;;;7.38;2.20;;;;;;;16.41;59.99;100989.41;4995202;28;20459;-73
2022/05/11 03:35:36;;;;;;;3.95;2.17;;;;;;;16.40;60.04;100987.75;4995071;28;20077;-73
2022/05/11 03:38:03;;;;;;;2.22;1.80;;;;;;;16.38;60.33;100987.22;5005261;28;20026;-73
2022/05/11 03:40:29;;;;;;;6.10;2.20;;;;;;;16.39;60.11;100977.91;5016412;28;20084;-73
2022/05/11 03:42:54;;;;;;;7.35;1.98;;;;;;;16.39;60.56;100982.56;4995593;28;20070;-73
2022/05/11 03:45:23;;;;;;;4.78;2.30;;;;;;;16.33;60.98;100978.94;4995288;28;20053;-73
2022/05/11 03:47:49;;;;;;;8.52;2.20;;;;;;;16.38;60.19;100972.72;4995142;28;20027;-74
2022/05/11 03:50:17;;;;;;;4.97;1.80;;;;;;;16.36;59.74;100974.88;4994637;28;20401;-73
2022/05/11 03:52:42;;;;;;;4.88;1.90;;;;;;;16.32;60.37;100977.31;4994562;28;20097;-73
2022/05/11 03:55:10;;;;;;;2.67;1.92;;;;;;;16.32;60.35;100981.94;4994483;28;20030;-73
2022/05/11 03:57:37;;;;;;;6.95;2.20;;;;;;;16.28;60.18;100973.47;4994881;28;20035;-73
2022/05/11 04:00:06;;;;;;;7.78;2.35;;;;;;;16.25;60.33;100976.72;4994654;28;20071;-73
2022/05/11 04:02:31;;;;;;;3.30;2.00;;;;;;;16.28;61.30;100977.00;4975675;28;20045;-73
2022/05/11 04:04:56;;;;;;;3.97;2.22;;;;;;;16.27;60.95;100977.25;4991729;28;20030;-73
2022/05/11 04:07:21;;;;;;;3.85;2.45;;;;;;;16.26;61.16;100970.16;4994785;28;20194;-73
2022/05/11 04:09:47;;;;;;;2.95;1.90;;;;;;;16.26;60.69;100973.72;4994512;28;20033;-73
2022/05/11 04:12:13;;;;;;;6.43;2.17;;;;;;;16.23;61.04;100971.50;4993205;28;20030;-72
2022/05/11 04:14:38;;;;;;;3.47;1.83;;;;;;;16.19;61.14;100973.09;4994130;28;20035;-73
2022/05/11 04:17:04;;;;;;;3.63;1.70;;;;;;;16.14;62.51;100964.88;4994495;28;20041;-73
2022/05/11 04:19:29;;;;;;;5.07;2.00;;;;;;;16.15;61.37;100965.69;4994160;28;20042;-73
2022/05/11 04:21:55;;;;;;;5.95;2.25;;;;;;;16.13;61.52;100965.97;4994141;28;20465;-73
2022/05/11 04:24:21;;;;;;;3.55;2.15;;;;;;;16.10;61.40;100966.47;4993660;28;20492;-73
2022/05/11 04:26:47;;;;;;;4.38;2.30;;;;;;;16.08;63.17;100968.66;4992870;28;20460;-73
2022/05/11 04:29:13;;;;;;;6.90;2.10;;;;;;;16.06;62.17;100971.66;4993484;28;20045;-73
2022/05/11 04:31:38;;;;;;;4.00;1.70;;;;;;;16.04;62.27;100962.88;4993868;28;20038;-73
2022/05/11 04:34:03;;;;;;;2.88;2.10;;;;;;;16.04;62.40;100965.59;4993941;28;20113;-73
2022/05/11 04:36:30;;;;;;;6.13;2.20;;;;;;;16.02;62.10;100967.78;4994142;28;20054;-73
2022/05/11 04:38:55;;;;;;;3.95;1.85;;;;;;;16.01;62.52;100971.56;4994004;28;20030;-73
2022/05/11 04:41:21;;;;;;;5.22;1.95;;;;;;;15.96;62.69;100960.63;4993756;28;20030;-73
2022/05/11 04:43:46;;;;;;;5.03;2.00;;;;;;;15.94;62.83;100968.22;4993956;28;20030;-73
2022/05/11 04:46:11;;;;;;;4.63;1.90;;;;;;;15.90;62.94;100967.13;4993576;28;20800;-73
2022/05/11 04:48:36;;;;;;;3.05;2.00;;;;;;;15.88;63.50;100975.56;4992381;28;20045;-73
2022/05/11 04:51:03;;;;;;;6.25;2.15;;;;;;;15.87;63.08;100965.72;4993509;28;20053;-73
2022/05/11 04:53:29;;;;;;;3.55;2.15;;;;;;;15.81;63.63;100964.03;4993459;28;20482;-73
2022/05/11 04:55:55;;;;;;;4.80;2.00;;;;;;;15.82;63.68;100965.69;4993877;28;20038;-73
2022/05/11 04:58:20;;;;;;;4.32;2.08;;;;;;;15.77;64.11;100958.22;4993448;28;20038;-73
2022/05/11 05:00:46;;;;;;;3.03;2.03;;;;;;;15.82;64.59;100959.38;4988703;28;20686;-74
2022/05/11 05:03:13;;;;;;;9.02;2.55;;;;;;;15.83;64.09;100967.31;4974198;28;20066;-73
2022/05/11 05:05:38;;;;;;;5.20;2.63;;;;;;;15.82;64.21;100962.09;4978574;28;20034;-73
2022/05/11 05:08:04;;;;;;;6.35;2.22;;;;;;;15.84;64.60;100968.16;4993717;28;20034;-73
2022/05/11 05:10:30;;;;;;;7.75;2.20;;;;;;;15.89;64.47;100965.47;4991581;28;20105;-73
2022/05/11 05:13:03;;;;;;;4.10;2.22;;;;;;;15.91;64.15;100969.59;4993317;28;20036;-73
2022/05/11 05:15:29;;;;;;;8.02;2.53;;;;;;;15.93;64.23;100963.88;4993363;28;20074;-73
2022/05/11 05:17:54;;;;;;;5.40;2.45;;;;;;;15.97;64.83;100964.97;4992884;28;20486;-73
2022/05/11 05:20:19;;;;;;;6.70;2.50;;;;;;;16.04;64.41;100973.78;4987558;28;20477;-73
2022/05/11 05:22:44;;;;;;;56.45;8.60;;;;;;;16.06;64.15;100974.38;4974051;28;20042;-73
2022/05/11 05:25:10;;;;;;;23.40;4.20;;;;;;;16.07;64.79;100981.47;4967211;28;20042;-73
2022/05/11 05:27:36;;;;;;;8.90;2.75;;;;;;;16.10;64.56;100983.66;4993320;28;20117;-73
2022/05/11 05:32:46;;;;;;;5.03;2.57;;;;;;;16.03;64.71;100980.31;4992922;28;20038;-73
2022/05/11 05:35:16;;;;;;;8.55;2.80;;;;;;;16.01;64.55;100984.41;4993060;28;20050;-73
2022/05/11 05:37:41;;;;;;;6.70;2.72;;;;;;;15.99;64.77;100981.94;4993354;28;20045;-73
2022/05/11 05:40:07;;;;;;;4.78;2.45;;;;;;;15.99;64.92;100981.94;4992839;28;20038;-73
2022/05/11 05:42:33;;;;;;;12.27;3.00;;;;;;;16.01;64.34;100968.03;4992695;28;20460;-73
2022/05/11 05:44:58;;;;;;;7.00;2.53;;;;;;;15.99;64.86;100986.56;4975806;28;20029;-73
2022/05/11 05:47:23;;;;;;;4.88;3.22;;;;;;;16.00;64.33;100988.22;4993368;28;20488;-73
2022/05/11 05:49:49;;;;;;;9.82;3.10;;;;;;;16.00;64.72;100986.28;4993236;28;20139;-73
2022/05/11 05:52:20;;;;;;;4.28;2.70;;;;;;;15.97;64.47;100992.28;4996903;28;20069;-73
2022/05/11 05:54:46;;;;;;;4.88;2.85;;;;;;;16.03;64.41;100993.97;5017095;28;20098;-74
2022/05/11 05:57:15;;;;;;;5.13;2.70;;;;;;;16.03;63.85;100985.78;4998926;28;20062;-73
2022/05/11 05:59:41;;;;;;;4.05;2.60;;;;;;;16.03;63.62;100993.97;4994440;28;20034;-73
2022/05/11 06:02:12;;;;;;;8.60;2.78;;;;;;;16.09;63.75;100992.13;4980393;28;20047;-74
2022/05/11 06:04:38;;;;;;;4.05;2.30;;;;;;;16.12;62.28;100995.16;4995148;28;20026;-74
2022/05/11 06:07:03;;;;;;;5.47;2.00;;;;;;;16.07;62.93;100978.72;4997837;28;20397;-73
2022/05/11 06:09:29;;;;;;;5.25;2.58;;;;;;;16.09;62.10;100986.66;4976167;28;20034;-73
2022/05/11 06:11:54;;;;;;;5.25;2.20;;;;;;;16.11;62.51;100988.06;4992993;28;20085;-73
2022/05/11 06:14:19;;;;;;;5.43;2.17;;;;;;;16.15;61.64;100984.81;4993140;28;20026;-73
2022/05/11 06:16:44;;;;;;;6.25;1.90;;;;;;;16.15;61.55;100991.09;4992817;28;20066;-73
2022/05/11 06:19:10;;;;;;;6.57;2.33;;;;;;;16.19;61.03;100986.75;4992856;28;20041;-73
2022/05/11 06:21:35;;;;;;;11.48;3.35;;;;;;;16.20;62.00;100982.94;4992471;28;20035;-73
2022/05/11 06:24:01;;;;;;;6.28;2.40;;;;;;;16.20;60.92;100979.38;4992399;28;20085;-73
2022/05/11 06:26:26;;;;;;;3.10;1.80;;;;;;;16.24;60.13;100981.31;4992547;28;20134;-73
2022/05/11 06:28:51;;;;;;;8.90;3.30;;;;;;;16.31;59.55;100978.41;4992760;28;20030;-73
2022/05/11 06:31:17;;;;;;;6.38;2.05;;;;;;;16.35;59.90;100979.53;4992241;28;20023;-73
2022/05/11 06:33:47;;;;;;;7.07;2.05;;;;;;;16.39;58.67;100980.63;4992512;28;20035;-72
2022/05/11 06:36:13;;;;;;;6.32;1.92;;;;;;;16.45;58.82;100976.03;4992301;28;20125;-72
2022/05/11 06:38:38;;;;;;;4.57;1.88;;;;;;;16.43;58.97;100975.50;4992399;28;20041;-72
2022/05/11 06:41:12;;;;;;;5.72;1.60;;;;;;;16.46;59.04;100970.31;4992250;28;20034;-72
2022/05/11 06:43:38;;;;;;;7.28;2.00;;;;;;;16.59;59.47;100970.94;4975311;28;20038;-72
2022/05/11 06:46:04;;;;;;;6.43;2.30;;;;;;;16.62;59.13;100967.69;4992259;28;20088;-73
2022/05/11 06:48:29;;;;;;;7.68;1.70;;;;;;;16.71;59.12;100977.03;4992438;28;20158;-72
2022/05/11 06:50:55;;;;;;;4.50;1.73;;;;;;;16.70;57.88;100975.41;4994773;28;20058;-72
2022/05/11 06:53:20;;;;;;;9.35;2.38;;;;;;;16.68;57.94;100966.63;4995716;28;20034;-72
2022/05/11 07:01:13;;;;;;;5.43;2.03;;;;;;;16.78;57.77;100971.38;4987134;28;20415;-72
2022/05/11 07:03:39;;;;;;;8.45;2.20;;;;;;;16.84;57.81;100971.13;4976249;28;20031;-73
2022/05/11 07:06:05;;;;;;;4.97;2.20;;;;;;;16.91;57.90;100964.63;4980524;28;20034;-73
2022/05/11 07:08:36;;;;;;;7.40;2.35;;;;;;;16.96;57.73;100970.13;4995563;28;20034;-74
2022/05/11 07:13:46;;;;;;;5.53;2.50;;;;;;;16.96;57.55;100973.69;4995508;28;20065;-73
2022/05/11 07:16:11;;;;;;;8.00;2.40;;;;;;;17.02;56.71;100974.53;4995239;28;20031;-73
2022/05/11 07:18:36;;;;;;;11.63;2.40;;;;;;;17.02;57.45;100981.94;4994141;28;20032;-73
2022/05/11 07:21:03;;;;;;;8.00;2.50;;;;;;;17.06;57.78;100975.66;4995094;28;20046;-73
2022/05/11 07:23:30;;;;;;;8.60;2.33;;;;;;;17.23;58.20;100978.19;4995109;28;20038;-73
2022/05/11 07:25:55;;;;;;;6.55;2.50;;;;;;;17.30;56.82;100976.06;4995349;28;20037;-73
2022/05/11 07:28:21;;;;;;;6.82;2.25;;;;;;;17.32;55.76;100970.31;4994706;28;20042;-73
2022/05/11 07:30:47;;;;;;;8.27;2.08;;;;;;;17.31;54.92;100979.59;5016957;28;20019;-73
2022/05/11 07:33:12;;;;;;;7.03;2.45;;;;;;;17.25;55.85;100975.19;5009488;28;20581;-73
2022/05/11 07:35:38;;;;;;;7.20;2.28;;;;;;;17.29;55.51;100979.88;4995265;28;20057;-73
2022/05/11 07:38:08;;;;;;;8.00;2.28;;;;;;;17.25;54.54;100978.75;4995940;28;20034;-73
2022/05/11 07:40:34;;;;;;;8.80;2.33;;;;;;;17.34;55.72;100979.06;4995043;28;20042;-73
2022/05/11 07:43:00;;;;;;;9.95;2.20;;;;;;;17.32;54.70;100979.34;4994705;28;20373;-74
2022/05/11 07:45:26;;;;;;;5.18;1.85;;;;;;;17.28;53.98;100974.66;4994814;28;20038;-73
2022/05/11 07:47:51;;;;;;;8.38;2.00;;;;;;;17.26;53.57;100974.13;4993596;28;20038;-73
2022/05/11 07:50:17;;;;;;;8.57;2.00;;;;;;;17.21;54.01;100974.06;4994951;28;20030;-74
2022/05/11 07:52:44;;;;;;;6.82;2.10;;;;;;;17.26;54.25;100980.41;4993171;28;20037;-73
2022/05/11 07:55:10;;;;;;;8.75;2.50;;;;;;;17.40;54.09;100977.19;4973781;28;20041;-73
2022/05/11 08:00:21;;;;;;;9.20;2.15;;;;;;;17.35;53.51;100992.47;4994880;28;20044;-73
2022/05/11 08:02:46;;;;;;;5.85;2.05;;;;;;;17.41;53.33;100979.66;4976424;28;20046;-74
2022/05/11 08:05:14;;;;;;;8.45;2.08;;;;;;;17.42;53.16;100980.47;4994958;28;20030;-73
2022/05/11 08:07:43;;;;;;;13.88;2.75;;;;;;;17.42;52.38;100989.50;4994485;28;20030;-73
2022/05/11 08:10:13;;;;;;;6.40;2.40;;;;;;;17.34;53.38;100987.28;4977264;28;20555;-72
2022/05/11 08:12:39;;;;;;;9.15;2.67;;;;;;;17.42;54.48;100984.03;4983469;28;20035;-72
2022/05/11 08:15:05;;;;;;;8.63;2.33;;;;;;;17.57;53.00;100976.97;4987148;28;20057;-71
2022/05/11 08:17:34;;;;;;;6.60;2.00;;;;;;;17.65;52.70;100974.53;4994104;28;20065;-71
2022/05/11 08:20:01;;;;;;;7.65;1.98;;;;;;;17.59;52.14;100985.72;4977234;28;20047;-71
2022/05/11 08:22:27;;;;;;;5.13;2.15;;;;;;;17.61;53.59;100984.34;4994006;28;20481;-71
2022/05/11 08:24:56;;;;;;;6.35;2.15;;;;;;;17.65;52.34;100987.41;4995113;28;20060;-72
2022/05/11 08:27:28;;;;;;;10.20;2.50;;;;;;;17.73;52.96;100980.56;4995483;28;20023;-72
2022/05/11 08:35:27;;;;;;;8.75;2.45;;;;;;;17.86;51.62;100966.34;4995351;28;20061;-72
2022/05/11 08:37:52;;;;;;;10.18;2.40;;;;;;;17.79;51.82;100963.06;4994980;28;20042;-72
2022/05/11 08:40:39;;;;;;;7.80;2.20;;;;;;;17.81;52.53;100975.38;4995437;28;20121;-73
2022/05/11 08:43:09;;;;;;;7.13;2.50;;;;;;;17.94;51.74;100973.25;4993875;28;20038;-71
2022/05/11 08:45:49;;;;;;;11.30;2.70;;;;;;;18.01;51.91;100971.91;4994093;28;20034;-72
2022/05/11 08:48:26;;;;;;;8.63;2.67;;;;;;;18.10;52.39;100968.59;4976760;28;20093;-72
2022/05/11 08:50:51;;;;;;;8.02;2.70;;;;;;;18.09;51.57;100966.94;4973080;28;20126;-70
2022/05/11 08:53:35;;;;;;;8.20;2.60;;;;;;;18.08;52.18;100976.28;4974827;28;20482;-72
2022/05/11 08:56:10;;;;;;;5.95;2.45;;;;;;;18.08;52.01;100960.66;4975975;28;20437;-71
2022/05/11 08:58:48;;;;;;;6.70;2.67;;;;;;;18.11;51.95;100960.13;4986627;28;20082;-71
2022/05/11 09:01:21;;;;;;;8.70;2.70;;;;;;;18.06;51.62;100968.34;4993188;28;20081;-71
2022/05/11 09:03:52;;;;;;;9.77;3.03;;;;;;;18.09;51.94;100970.53;4974292;28;20026;-71
2022/05/11 09:06:24;;;;;;;8.93;3.03;;;;;;;18.08;52.11;100960.66;4974655;28;20027;-71
2022/05/11 09:08:50;;;;;;;10.52;2.55;;;;;;;18.08;52.63;100952.44;4974290;28;20462;-71
2022/05/11 09:11:33;;;;;;;7.72;2.80;;;;;;;18.13;51.35;100959.84;4989282;28;20034;-72
2022/05/11 09:14:00;;;;;;;12.85;3.20;;;;;;;18.18;51.91;100954.38;4992713;28;20393;-70
2022/05/11 09:16:36;;;;;;;8.25;2.67;;;;;;;18.23;51.33;100941.50;4993294;28;20532;-70
2022/05/11 09:19:22;;;;;;;9.13;2.50;;;;;;;18.27;51.28;100946.41;4990924;28;20038;-74
2022/05/11 09:21:57;;;;;;;21.35;3.08;;;;;;;18.33;51.96;100951.63;4965326;28;20132;-74
2022/05/11 09:24:30;;;;;;;12.50;2.65;;;;;;;18.48;52.26;100939.00;4989996;28;20030;-75
2022/05/11 09:27:09;;;;;;;10.60;2.65;;;;;;;18.59;51.86;100941.47;4977334;28;20084;-78
2022/05/11 09:29:41;;;;;;;9.02;2.80;;;;;;;18.66;51.25;100949.41;4991912;28;20084;-73
2022/05/11 09:32:22;;;;;;;5.70;2.72;;;;;;;18.73;51.69;100943.63;4976078;28;20565;-73
2022/05/11 09:34:47;;;;;;;6.68;2.60;;;;;;;18.65;51.14;100941.47;4975193;28;20379;-75
2022/05/11 09:37:35;;;;;;;12.57;2.90;;;;;;;18.64;51.71;100951.59;4992740;28;20041;-75
2022/05/11 09:40:21;;;;;;;9.63;2.53;;;;;;;18.49;52.06;100943.41;4993225;28;20061;-73
2022/05/11 09:42:57;;;;;;;12.43;3.15;;;;;;;18.42;51.69;100941.75;4991102;28;20421;-74
2022/05/11 09:45:44;;;;;;;7.32;2.78;;;;;;;18.43;52.55;100934.34;4977763;28;20031;-73
2022/05/11 09:48:31;;;;;;;10.88;2.97;;;;;;;18.47;51.62;100931.91;4991915;28;20531;-74
2022/05/11 09:51:20;;;;;;;10.02;2.97;;;;;;;18.47;51.47;100935.44;4993253;28;20081;-77
2022/05/11 09:54:13;;;;;;;9.00;2.95;;;;;;;18.41;51.58;100923.66;4975303;28;20089;-71
2022/05/11 09:56:44;;;;;;;10.55;3.20;;;;;;;18.50;51.97;100929.41;4992170;28;20462;-76
2022/05/11 09:59:22;;;;;;;8.98;2.70;;;;;;;18.62;51.51;100925.59;4973685;28;20042;-73
2022/05/11 10:01:54;;;;;;;10.35;2.67;;;;;;;18.76;52.29;100924.69;4979710;28;20061;-73
2022/05/11 10:04:24;;;;;;;;;;;;;;;18.87;52.07;100927.44;4993401;28;20034;-74
2022/05/11 10:06:52;;;;;;;6.45;2.58;;;;;;;19.07;52.42;100929.31;4992319;28;19925;-74
2022/05/11 10:09:27;;;;;;;8.40;2.95;;;;;;;19.08;51.33;100939.16;4993024;28;20037;-74
2022/05/11 10:11:52;;;;;;;12.75;3.15;;;;;;;18.95;50.95;100932.38;4992719;28;20085;-74
2022/05/11 10:23:16;;;;;;;9.38;2.78;;;;;;;19.24;51.46;100927.03;4992697;28;20122;-73
2022/05/11 10:25:48;;;;;;;7.75;3.03;;;;;;;19.22;50.40;100923.75;4977740;28;20034;-74
2022/05/11 10:28:21;;;;;;;10.38;3.05;;;;;;;19.24;51.11;100920.72;4976861;28;20146;-73
2022/05/11 10:31:00;;;;;;;19.38;3.33;;;;;;;19.23;51.24;100919.88;4976990;28;20038;-73
2022/05/11 10:33:47;;;;;;;10.20;2.53;;;;;;;19.33;51.30;100918.22;4976931;28;20026;-75
2022/05/11 10:36:54;;;;;;;8.48;2.80;;;;;;;19.43;50.86;100907.16;4990480;28;20134;-73
2022/05/11 10:39:37;;;;;;;7.40;2.70;;;;;;;19.49;50.00;100900.56;4958180;28;20038;-75
2022/05/11 10:42:29;;;;;;;7.97;2.45;;;;;;;19.54;49.67;100900.53;4996518;28;20092;-75
2022/05/11 10:45:21;;;;;;;9.48;2.35;;;;;;;19.64;50.38;100896.88;5006483;28;20010;-75
2022/05/11 10:48:21;;;;;;;11.60;2.53;;;;;;;19.80;49.94;100897.63;4990788;28;20046;-72
2022/05/11 10:50:55;;;;;;;7.47;2.83;;;;;;;19.86;48.54;100896.50;4990663;28;20038;-75
2022/05/11 10:53:33;;;;;;;13.85;3.28;;;;;;;19.84;49.40;100895.97;4977389;28;20117;-74
2022/05/11 10:56:20;;;;;;;10.90;3.20;;;;;;;19.96;50.28;100899.16;4987402;28;20058;-75
2022/05/11 10:59:17;;;;;;;11.48;3.30;;;;;;;19.86;50.13;100901.19;4978332;28;20492;-75
2022/05/11 11:01:54;;;;;;;7.97;2.53;;;;;;;20.00;50.15;100889.25;4989310;28;20065;-73
2022/05/11 11:04:22;;;;;;;10.57;2.40;;;;;;;20.15;48.33;100885.53;4995837;28;20042;-77
2022/05/11 11:07:11;;;;;;;12.48;2.70;;;;;;;20.16;49.08;100889.09;4995488;28;20549;-75
2022/05/11 11:10:02;;;;;;;6.45;2.40;;;;;;;20.30;48.16;100889.25;4979993;28;20050;-72
2022/05/11 11:12:38;;;;;;;12.90;3.20;;;;;;;20.22;46.96;100884.41;4976271;28;20023;-74
2022/05/11 11:15:10;;;;;;;8.57;2.40;;;;;;;20.22;48.27;100876.97;4978711;28;20088;-75
2022/05/11 11:17:36;;;;;;;8.07;2.85;;;;;;;20.34;47.97;100880.13;4995472;28;20113;-75
2022/05/11 11:20:05;;;;;;;6.55;2.53;;;;;;;20.31;47.41;100885.41;4973391;28;20128;-76
2022/05/11 11:23:02;;;;;;;9.00;2.75;;;;;;;20.25;48.46;100872.81;4962880;28;20042;-76
2022/05/11 11:25:47;;;;;;;8.45;2.38;;;;;;;20.33;48.26;100874.94;4969099;28;20530;-75
2022/05/11 11:28:15;;;;;;;14.82;3.28;;;;;;;20.35;45.90;100862.53;4975071;28;20027;-76
2022/05/11 11:31:04;;;;;;;32.67;5.70;;;;;;;20.45;46.45;100867.09;4975998;28;20089;-75
2022/05/11 11:33:31;;;;;;;8.40;2.42;;;;;;;20.50;46.25;100879.97;4983621;28;20079;-76
2022/05/11 11:36:05;;;;;;;10.10;2.72;;;;;;;20.58;46.30;100860.09;4993948;28;20054;-76
2022/05/11 11:38:39;;;;;;;10.40;2.60;;;;;;;20.64;45.23;100861.69;4995029;28;20080;-76
2022/05/11 11:41:19;;;;;;;6.88;2.40;;;;;;;20.59;46.02;100850.72;4995813;28;20034;-76
2022/05/11 11:43:58;;;;;;;9.35;2.70;;;;;;;20.67;45.79;100857.56;4977526;28;20031;-74
2022/05/11 11:46:32;;;;;;;23.30;4.05;;;;;;;20.79;44.80;100848.88;4994223;28;20129;-73
2022/05/11 11:49:21;;;;;;;11.52;2.53;;;;;;;20.95;45.31;100847.56;4994902;28;20035;-74
2022/05/11 11:51:50;;;;;;;6.32;2.53;;;;;;;21.10;44.00;100856.75;4984457;28;20049;-75
2022/05/11 11:54:27;;;;;;;11.43;2.60;;;;;;;21.13;43.98;100847.91;4998704;28;20074;-74
2022/05/11 11:56:54;;;;;;;11.05;2.38;;;;;;;21.24;43.93;100839.22;4999380;28;20019;-73
2022/05/11 11:59:22;;;;;;;6.88;2.20;;;;;;;21.39;43.59;100851.94;4987803;28;20030;-73
2022/05/11 12:01:48;;;;;;;6.20;2.15;;;;;;;21.34;43.13;100843.72;4982829;28;20050;-74
2022/05/11 12:04:18;;;;;;;8.05;2.25;;;;;;;21.49;43.77;100842.69;4975388;28;20390;-74
2022/05/11 12:15:23;;;;;;;6.22;2.00;;;;;;;21.74;42.68;100835.16;4975014;28;20042;-74
2022/05/11 12:17:48;;;;;;;6.63;2.55;;;;;;;21.79;41.81;100826.03;4988764;28;20542;-75
2022/05/11 12:20:18;;;;;;;10.57;2.40;;;;;;;21.67;41.44;100810.78;4994212;28;20030;-76
2022/05/11 12:22:50;;;;;;;9.02;2.08;;;;;;;21.84;42.33;100821.22;4994200;28;20088;-73